createdAt,value
2022-12-31T18:59:56.234Z,14.10
2022-12-31T19:03:27.343Z,13.90
2022-12-31T19:05:58.060Z,13.70
2022-12-31T19:08:28.037Z,13.60
2022-12-31T19:10:58.352Z,13.50
2022-12-31T19:13:28.199Z,13.50
2022-12-31T19:16:49.279Z,13.50
2022-12-31T19:19:20.385Z,13.30
2022-12-31T19:21:50.992Z,13.40
2022-12-31T19:24:24.696Z,13.60
2022-12-31T19:26:55.824Z,13.60
2022-12-31T19:29:28.537Z,13.50
2022-12-31T19:32:02.407Z,13.60
2022-12-31T19:34:33.541Z,13.50
2022-12-31T19:37:04.285Z,13.30
2022-12-31T19:39:35.488Z,13.30
2022-12-31T19:42:06.103Z,13.50
2022-12-31T19:44:37.073Z,13.50
2022-12-31T19:47:13.176Z,13.60
2022-12-31T19:49:44.147Z,13.80
2022-12-31T19:52:14.686Z,13.80
2022-12-31T19:54:45.493Z,13.90
2022-12-31T19:57:15.905Z,14.00
2022-12-31T19:59:46.983Z,14.10
2022-12-31T20:02:18.873Z,14.20
2022-12-31T20:04:49.825Z,14.40
2022-12-31T20:07:26.869Z,14.60
2022-12-31T20:09:58.000Z,14.40
2022-12-31T20:12:29.721Z,14.50
2022-12-31T20:15:00.696Z,14.50
2022-12-31T20:17:32.781Z,14.50
2022-12-31T20:20:03.557Z,14.30
2022-12-31T20:22:34.363Z,14.30
2022-12-31T20:25:06.236Z,14.30
2022-12-31T20:27:37.071Z,14.30
2022-12-31T20:30:10.982Z,14.30
2022-12-31T20:32:43.084Z,14.20
2022-12-31T20:35:13.871Z,14.20
2022-12-31T20:37:44.334Z,14.20
2022-12-31T20:40:16.882Z,14.20
2022-12-31T20:42:47.528Z,14.10
2022-12-31T20:45:18.809Z,14.30
2022-12-31T20:47:50.706Z,14.20
2022-12-31T20:50:21.826Z,14.30
2022-12-31T20:52:52.365Z,14.30
2022-12-31T20:55:24.884Z,14.20
2022-12-31T20:57:55.702Z,14.30
2022-12-31T21:00:26.610Z,14.30
2022-12-31T21:03:10.495Z,14.30
2022-12-31T21:05:50.952Z,14.10
2022-12-31T21:08:22.281Z,14.20
2022-12-31T21:10:53.123Z,14.20
2022-12-31T21:13:23.182Z,14.10
2022-12-31T21:15:55.794Z,14.30
2022-12-31T21:18:28.705Z,14.30
2022-12-31T21:21:00.650Z,14.10
2022-12-31T21:23:31.320Z,14.10
2022-12-31T21:26:02.575Z,14.00
2022-12-31T21:28:33.429Z,13.90
2022-12-31T21:31:07.831Z,13.90
2022-12-31T21:33:40.004Z,13.60
2022-12-31T21:36:11.119Z,13.40
2022-12-31T21:38:41.641Z,13.20
2022-12-31T21:41:35.031Z,13.00
2022-12-31T21:44:06.308Z,12.70
2022-12-31T21:46:37.195Z,12.60
2022-12-31T21:49:09.389Z,12.60
2022-12-31T21:51:53.905Z,12.60
2022-12-31T21:54:38.290Z,12.90
2022-12-31T21:57:09.235Z,12.90
2022-12-31T22:00:23.949Z,12.70
2022-12-31T22:03:05.304Z,12.80
2022-12-31T22:05:38.219Z,13.00
2022-12-31T22:08:09.251Z,13.00
2022-12-31T22:10:44.682Z,12.90
2022-12-31T22:13:20.116Z,13.00
2022-12-31T22:15:58.848Z,12.80
2022-12-31T22:18:38.712Z,13.00
2022-12-31T22:21:18.816Z,12.90
2022-12-31T22:23:52.341Z,12.90
2022-12-31T22:26:25.963Z,12.80
2022-12-31T22:28:59.724Z,13.00
2022-12-31T22:31:32.597Z,13.20
2022-12-31T22:34:03.943Z,13.20
2022-12-31T22:36:36.119Z,13.30
2022-12-31T22:39:06.981Z,13.10
2022-12-31T22:41:37.478Z,13.20
2022-12-31T22:44:08.851Z,13.10
2022-12-31T22:46:39.697Z,13.00
2022-12-31T22:49:12.640Z,13.00
2022-12-31T22:51:55.169Z,12.90
2022-12-31T22:54:54.969Z,12.90
2022-12-31T22:57:25.794Z,12.80
2022-12-31T22:59:56.560Z,12.70
2022-12-31T23:02:27.205Z,12.80
2022-12-31T23:05:16.223Z,12.70
2022-12-31T23:07:48.427Z,12.60
2022-12-31T23:10:36.502Z,12.50
2022-12-31T23:13:24.760Z,12.70
2022-12-31T23:16:13.059Z,12.60
2022-12-31T23:19:05.392Z,12.40
2022-12-31T23:21:54.241Z,12.40
2022-12-31T23:24:29.101Z,12.30
2022-12-31T23:27:00.297Z,12.20
2022-12-31T23:29:30.889Z,12.10
2022-12-31T23:32:01.939Z,12.00
2022-12-31T23:34:32.412Z,12.00
2022-12-31T23:37:04.433Z,12.10
2022-12-31T23:39:36.477Z,12.20
2022-12-31T23:42:07.887Z,12.10
2022-12-31T23:44:39.824Z,12.20
2022-12-31T23:47:11.119Z,12.40
2022-12-31T23:49:41.557Z,12.50
2022-12-31T23:52:12.504Z,12.60
2022-12-31T23:54:44.343Z,12.60
2022-12-31T23:57:15.441Z,12.90
2022-12-31T23:59:45.985Z,13.10
